Time;durP1;ratioP1;P1;durP2;ratioP2;P2;SDS_P1;SDS_P2;PMS_P1;PMS_P2;Temp;Humidity;BMP_temperature;BMP_pressure;BME280_temperature;BME280_humidity;BME280_pressure;Samples;Min_cycle;Max_cycle;Signal;HPM_P1;HPM_P2
2021/08/05 00:01:31;;;;;;;;;;;17.00;99.90;;;;;;6313053;28;19976;-66
2021/08/05 00:04:33;;;;;;;;;;;16.90;99.90;;;;;;6340978;28;19983;-66
2021/08/05 00:07:34;;;;;;;;;;;16.90;99.90;;;;;;6316823;28;20431;-66
2021/08/05 00:10:36;;;;;;;;;;;16.80;99.90;;;;;;6343982;28;19972;-66
2021/08/05 00:13:37;;;;;;;;;;;16.80;99.90;;;;;;6319821;28;19984;-66
2021/08/05 00:16:39;;;;;;;;;;;16.80;99.90;;;;;;6313542;28;20030;-67
2021/08/05 00:19:41;;;;;;;;;;;16.70;99.90;;;;;;6328640;28;19991;-67
2021/08/05 00:22:42;;;;;;;;;;;16.70;99.90;;;;;;6322873;28;19980;-66
2021/08/05 00:25:44;;;;;;;;;;;16.70;99.90;;;;;;6345745;28;19976;-67
2021/08/05 00:28:46;;;;;;;;;;;16.70;99.90;;;;;;6345572;28;19979;-66
2021/08/05 00:31:51;;;;;;;;;;;16.60;99.90;;;;;;6318862;28;20090;-66
2021/08/05 00:34:53;;;;;;;;;;;16.60;99.90;;;;;;6338631;28;20042;-67
2021/08/05 00:37:54;;;;;;;;;;;16.60;99.90;;;;;;6343250;28;19972;-66
2021/08/05 00:40:56;;;;;;;;;;;16.60;99.90;;;;;;6348042;28;19983;-67
2021/08/05 00:43:58;;;;;;;;;;;16.50;99.90;;;;;;6325307;28;20096;-66
2021/08/05 00:47:00;;;;;;;;;;;16.50;99.90;;;;;;6346350;28;19987;-66
2021/08/05 00:50:02;;;;;;;;;;;16.50;99.90;;;;;;6320031;28;19970;-66
2021/08/05 00:53:04;;;;;;;;;;;16.40;99.90;;;;;;6320297;28;20431;-66
2021/08/05 00:56:06;;;;;;;;;;;16.40;99.90;;;;;;6313881;28;19979;-67
2021/08/05 00:59:07;;;;;;;;;;;16.40;99.90;;;;;;6344649;28;20446;-66
2021/08/05 01:02:16;;;;;;;;;;;16.30;99.90;;;;;;6345344;28;19976;-67
2021/08/05 01:05:19;;;;;;;;;;;16.30;99.90;;;;;;6305035;28;20366;-66
2021/08/05 01:08:23;;;;;;;;;;;16.20;99.90;;;;;;6344808;28;19980;-67
2021/08/05 01:11:30;;;;;;;;;;;16.20;99.90;;;;;;6347163;28;20342;-66
2021/08/05 01:14:35;;;;;;;;;;;16.20;99.90;;;;;;6327336;28;19997;-67
2021/08/05 01:17:39;;;;;;;;;;;16.20;99.90;;;;;;6320979;28;19976;-66
2021/08/05 01:20:42;;;;;;;;;;;16.20;99.90;;;;;;6310929;28;20072;-66
2021/08/05 01:23:52;;;;;;;;;;;16.10;99.90;;;;;;6345850;28;19976;-67
2021/08/05 01:26:56;;;;;;;;;;;16.10;99.90;;;;;;6345755;28;19980;-67
2021/08/05 01:29:59;;;;;;;;;;;16.10;99.90;;;;;;6316869;28;19972;-67
2021/08/05 01:33:01;;;;;;;;;;;16.00;99.90;;;;;;6316294;28;19999;-67
2021/08/05 01:36:04;;;;;;;;;;;16.00;99.90;;;;;;6345063;28;19975;-66
2021/08/05 01:39:06;;;;;;;;;;;16.00;99.90;;;;;;6342488;28;19975;-66
2021/08/05 01:42:08;;;;;;;;;;;16.00;99.90;;;;;;6308015;28;19987;-67
2021/08/05 01:45:09;;;;;;;;;;;16.00;99.90;;;;;;6345202;28;19976;-66
2021/08/05 01:48:12;;;;;;;;;;;15.90;99.90;;;;;;6334389;28;20068;-67
2021/08/05 01:51:14;;;;;;;;;;;15.90;99.90;;;;;;6314630;28;20021;-66
2021/08/05 01:54:16;;;;;;;;;;;15.90;99.90;;;;;;6344384;28;19992;-66
2021/08/05 01:57:18;;;;;;;;;;;15.80;99.90;;;;;;6314912;28;19983;-67
2021/08/05 02:00:19;;;;;;;;;;;15.80;99.90;;;;;;6344057;28;20253;-66
2021/08/05 02:03:21;;;;;;;;;;;15.80;99.90;;;;;;6344042;28;20438;-67
2021/08/05 02:06:24;;;;;;;;;;;15.80;99.90;;;;;;6344168;28;19980;-66
2021/08/05 02:09:27;;;;;;;;;;;15.70;99.90;;;;;;6312394;28;19976;-67
2021/08/05 02:12:33;;;;;;;;;;;15.70;99.90;;;;;;6344138;28;20456;-67
2021/08/05 02:15:38;;;;;;;;;;;15.70;99.90;;;;;;6344374;28;19972;-67
2021/08/05 02:18:43;;;;;;;;;;;15.60;99.90;;;;;;6319259;28;19983;-66
2021/08/05 02:21:45;;;;;;;;;;;15.60;99.90;;;;;;6339062;28;20399;-66
2021/08/05 02:24:47;;;;;;;;;;;15.60;99.90;;;;;;6311610;28;19972;-66
2021/08/05 02:27:49;;;;;;;;;;;15.60;99.90;;;;;;6342788;28;19976;-67
2021/08/05 02:30:52;;;;;;;;;;;15.50;99.90;;;;;;6345042;28;19983;-66
2021/08/05 02:33:55;;;;;;;;;;;15.50;99.90;;;;;;6343907;28;19999;-67
2021/08/05 02:36:59;;;;;;;;;;;15.50;99.90;;;;;;6320871;28;19976;-66
2021/08/05 02:40:02;;;;;;;;;;;15.50;99.90;;;;;;6344136;28;20024;-67
2021/08/05 02:43:05;;;;;;;;;;;15.50;99.90;;;;;;6339859;28;20089;-66
2021/08/05 02:46:07;;;;;;;;;;;15.40;99.90;;;;;;6337097;28;19980;-67
2021/08/05 02:49:09;;;;;;;;;;;15.40;99.90;;;;;;6338034;28;20346;-67
2021/08/05 02:52:10;;;;;;;;;;;15.40;99.90;;;;;;6336731;28;20427;-66
2021/08/05 02:55:12;;;;;;;;;;;15.30;99.90;;;;;;6312520;28;19980;-66
2021/08/05 02:58:14;;;;;;;;;;;15.30;99.90;;;;;;6337467;28;20018;-67
2021/08/05 03:01:18;;;;;;;;;;;15.30;99.90;;;;;;6344732;28;19983;-66
2021/08/05 03:04:20;;;;;;;;;;;15.30;99.90;;;;;;6336478;28;19980;-67
2021/08/05 03:07:22;;;;;;;;;;;15.30;99.90;;;;;;6341280;28;19986;-67
2021/08/05 03:10:24;;;;;;;;;;;15.20;99.90;;;;;;6341687;28;20025;-67
2021/08/05 03:13:25;;;;;;;;;;;15.30;99.90;;;;;;6320864;28;19999;-67
2021/08/05 03:16:27;;;;;;;;;;;15.30;99.90;;;;;;6342746;28;19976;-67
2021/08/05 03:19:29;;;;;;;;;;;15.30;99.90;;;;;;6328352;28;19992;-67
2021/08/05 03:22:30;;;;;;;;;;;15.30;99.90;;;;;;6341431;28;20045;-66
2021/08/05 03:25:32;;;;;;;;;;;15.30;99.90;;;;;;6342104;28;19986;-67
2021/08/05 03:28:34;;;;;;;;;;;15.30;99.90;;;;;;6332377;28;19999;-67
2021/08/05 03:31:35;;;;;;;;;;;15.30;99.90;;;;;;6344007;28;19994;-67
2021/08/05 03:34:37;;;;;;;;;;;15.30;99.90;;;;;;6307283;28;19987;-67
2021/08/05 03:37:39;;;;;;;;;;;15.30;99.90;;;;;;6339861;28;19976;-67
2021/08/05 03:40:40;;;;;;;;;;;15.30;99.90;;;;;;6344466;28;19986;-67
2021/08/05 03:43:42;;;;;;;;;;;15.20;99.90;;;;;;6314855;28;19974;-66
2021/08/05 03:46:44;;;;;;;;;;;15.20;99.90;;;;;;6342380;28;19979;-66
2021/08/05 03:49:46;;;;;;;;;;;15.30;99.90;;;;;;6340018;28;19972;-66
2021/08/05 03:52:47;;;;;;;;;;;15.30;99.90;;;;;;6342436;28;20408;-66
2021/08/05 03:55:51;;;;;;;;;;;15.30;99.90;;;;;;6309970;28;20191;-67
2021/08/05 03:58:52;;;;;;;;;;;15.30;99.90;;;;;;6320116;28;19976;-66
2021/08/05 04:01:54;;;;;;;;;;;15.40;99.90;;;;;;6348540;28;19972;-67
2021/08/05 04:04:56;;;;;;;;;;;15.40;99.90;;;;;;6345167;28;20380;-67
2021/08/05 04:07:57;;;;;;;;;;;15.30;99.90;;;;;;6346674;28;19971;-67
2021/08/05 04:10:59;;;;;;;;;;;15.40;99.90;;;;;;6348807;28;19983;-67
2021/08/05 04:14:01;;;;;;;;;;;15.30;99.90;;;;;;6346836;28;19996;-67
2021/08/05 04:17:02;;;;;;;;;;;15.40;99.90;;;;;;6303817;28;19984;-67
2021/08/05 04:20:05;;;;;;;;;;;15.30;99.90;;;;;;6335146;28;20347;-67
2021/08/05 04:23:07;;;;;;;;;;;15.30;99.90;;;;;;6325830;28;19980;-66
2021/08/05 04:26:09;;;;;;;;;;;15.40;99.90;;;;;;6346548;28;19979;-67
2021/08/05 04:29:11;;;;;;;;;;;15.30;99.90;;;;;;6310325;28;19983;-67
2021/08/05 04:32:12;;;;;;;;;;;15.30;99.90;;;;;;6328391;28;19980;-66
2021/08/05 04:35:14;;;;;;;;;;;15.40;99.90;;;;;;6319567;28;19995;-67
2021/08/05 04:38:16;;;;;;;;;;;15.40;99.90;;;;;;6319803;28;19976;-67
2021/08/05 04:41:21;;;;;;;;;;;15.40;99.90;;;;;;6320087;28;19979;-66
2021/08/05 04:44:22;;;;;;;;;;;15.40;99.90;;;;;;6342945;28;19980;-67
2021/08/05 04:47:24;;;;;;;;;;;15.50;99.90;;;;;;6342524;28;20061;-67
2021/08/05 04:50:27;;;;;;;;;;;15.40;99.90;;;;;;6345724;28;19976;-66
2021/08/05 04:53:28;;;;;;;;;;;15.40;99.90;;;;;;6341302;28;19995;-66
2021/08/05 04:56:31;;;;;;;;;;;15.50;99.90;;;;;;6345849;28;19975;-67
2021/08/05 04:59:32;;;;;;;;;;;15.50;99.90;;;;;;6340273;28;19987;-67
2021/08/05 05:02:34;;;;;;;;;;;15.50;99.90;;;;;;6345271;28;19972;-66
2021/08/05 05:05:36;;;;;;;;;;;15.50;99.90;;;;;;6345415;28;20045;-66
2021/08/05 05:08:39;;;;;;;;;;;15.50;99.90;;;;;;6340738;28;19972;-67
2021/08/05 05:11:43;;;;;;;;;;;15.50;99.90;;;;;;6340646;28;19979;-67
2021/08/05 05:14:44;;;;;;;;;;;15.50;99.90;;;;;;6344560;28;20000;-67
2021/08/05 05:17:46;;;;;;;;;;;15.50;99.90;;;;;;6339564;28;19972;-67
2021/08/05 05:20:48;;;;;;;;;;;15.50;99.90;;;;;;6334646;28;20002;-67
2021/08/05 05:23:50;;;;;;;;;;;15.50;99.90;;;;;;6320503;28;19987;-67
2021/08/05 05:26:52;;;;;;;;;;;15.60;99.90;;;;;;6316935;28;20000;-67
2021/08/05 05:29:59;;;;;;;;;;;15.60;99.90;;;;;;6344362;28;20052;-67
2021/08/05 05:33:01;;;;;;;;;;;15.60;99.90;;;;;;6344337;28;20003;-66
2021/08/05 05:36:03;;;;;;;;;;;15.70;99.90;;;;;;6344874;28;19999;-66
2021/08/05 05:39:05;;;;;;;;;;;15.70;99.90;;;;;;6342597;28;20284;-67
2021/08/05 05:42:06;;;;;;;;;;;15.80;99.90;;;;;;6327093;28;19998;-66
2021/08/05 05:45:09;;;;;;;;;;;15.80;99.90;;;;;;6344503;28;19975;-66
2021/08/05 05:48:11;;;;;;;;;;;15.80;99.90;;;;;;6339203;28;19980;-67
2021/08/05 05:51:13;;;;;;;;;;;15.80;99.90;;;;;;6311764;28;19987;-67
2021/08/05 05:54:14;;;;;;;;;;;15.90;99.90;;;;;;6323462;28;19992;-67
2021/08/05 05:57:16;;;;;;;;;;;15.90;99.90;;;;;;6342707;28;19995;-66
2021/08/05 06:00:18;;;;;;;;;;;15.90;99.90;;;;;;6345335;28;20359;-67
2021/08/05 06:03:19;;;;;;;;;;;15.90;99.90;;;;;;6344016;28;20446;-66
2021/08/05 06:06:21;;;;;;;;;;;16.00;99.90;;;;;;6344017;28;20486;-66
2021/08/05 06:09:23;;;;;;;;;;;16.00;99.90;;;;;;6339860;28;19987;-66
2021/08/05 06:12:24;;;;;;;;;;;16.10;99.90;;;;;;6341671;28;20013;-67
2021/08/05 06:15:26;;;;;;;;;;;16.10;99.90;;;;;;6344069;28;20072;-67
2021/08/05 06:18:33;;;;;;;;;;;16.20;99.90;;;;;;6319625;28;20195;-67
2021/08/05 06:21:35;;;;;;;;;;;16.20;99.90;;;;;;6331486;28;19975;-67
2021/08/05 06:24:37;;;;;;;;;;;16.30;99.90;;;;;;6342429;28;20320;-66
2021/08/05 06:27:38;;;;;;;;;;;16.40;99.90;;;;;;6339003;28;19987;-66
2021/08/05 06:30:40;;;;;;;;;;;16.40;99.90;;;;;;6342959;28;19990;-67
2021/08/05 06:33:41;;;;;;;;;;;16.50;99.90;;;;;;6344210;28;19999;-66
2021/08/05 06:36:43;;;;;;;;;;;16.60;99.90;;;;;;6343823;28;19980;-67
2021/08/05 06:39:45;;;;;;;;;;;16.70;99.90;;;;;;6340521;28;19971;-67
2021/08/05 06:42:46;;;;;;;;;;;16.70;99.90;;;;;;6343565;28;19978;-67
2021/08/05 06:45:48;;;;;;;;;;;16.80;99.90;;;;;;6337031;28;19987;-66
2021/08/05 06:48:50;;;;;;;;;;;16.80;99.90;;;;;;6339186;28;19972;-67
2021/08/05 06:51:51;;;;;;;;;;;16.90;99.90;;;;;;6345008;28;19972;-67
2021/08/05 06:54:53;;;;;;;;;;;16.90;99.90;;;;;;6341712;28;19991;-67
2021/08/05 06:57:54;;;;;;;;;;;17.00;99.90;;;;;;6338873;28;19976;-67
2021/08/05 07:00:56;;;;;;;;;;;17.10;99.90;;;;;;6345634;28;19976;-67
2021/08/05 07:04:01;;;;;;;;;;;17.20;99.90;;;;;;6342590;28;20022;-66
2021/08/05 07:07:03;;;;;;;;;;;17.30;99.90;;;;;;6342493;28;19987;-67
2021/08/05 07:10:05;;;;;;;;;;;17.40;99.90;;;;;;6340482;28;20419;-66
2021/08/05 07:13:06;;;;;;;;;;;17.50;99.90;;;;;;6343327;28;19980;-67
2021/08/05 07:16:08;;;;;;;;;;;17.70;99.90;;;;;;6343165;28;19976;-67
2021/08/05 07:19:09;;;;;;;;;;;17.80;99.90;;;;;;6329434;28;19992;-67
2021/08/05 07:22:11;;;;;;;;;;;17.90;99.90;;;;;;6343158;28;19983;-67
2021/08/05 07:25:14;;;;;;;;;;;18.00;99.90;;;;;;6304572;28;20416;-67
2021/08/05 07:28:15;;;;;;;;;;;18.10;99.90;;;;;;6314707;28;19982;-67
2021/08/05 07:31:17;;;;;;;;;;;18.10;99.90;;;;;;6344797;28;19984;-67
2021/08/05 07:34:19;;;;;;;;;;;18.10;99.90;;;;;;6344874;28;19988;-67
2021/08/05 07:37:20;;;;;;;;;;;18.20;99.90;;;;;;6345737;28;20003;-67
2021/08/05 07:40:22;;;;;;;;;;;18.30;99.90;;;;;;6323527;28;20475;-66
2021/08/05 07:43:24;;;;;;;;;;;18.40;99.90;;;;;;6348281;28;19979;-66
2021/08/05 07:46:25;;;;;;;;;;;18.50;99.90;;;;;;6319214;28;20430;-67
2021/08/05 07:49:27;;;;;;;;;;;18.60;99.90;;;;;;6347177;28;20383;-67
2021/08/05 07:52:29;;;;;;;;;;;18.70;99.90;;;;;;6345960;28;20025;-67
2021/08/05 07:55:31;;;;;;;;;;;18.70;99.90;;;;;;6345066;28;19987;-67
2021/08/05 07:58:33;;;;;;;;;;;18.80;99.90;;;;;;6341488;28;19979;-67
2021/08/05 08:01:34;;;;;;;;;;;18.80;99.90;;;;;;6349179;28;19975;-67
2021/08/05 08:04:36;;;;;;;;;;;18.90;99.90;;;;;;6327629;28;19972;-67
2021/08/05 08:07:38;;;;;;;;;;;18.90;99.90;;;;;;6343376;28;20312;-66
2021/08/05 08:10:40;;;;;;;;;;;19.00;99.90;;;;;;6328958;28;19979;-67
2021/08/05 08:13:57;;;;;;;;;;;19.10;99.90;;;;;;6347149;28;19984;-67
2021/08/05 08:16:58;;;;;;;;;;;19.10;99.90;;;;;;6318315;28;20391;-67
2021/08/05 08:20:00;;;;;;;;;;;19.10;99.90;;;;;;6329166;28;20014;-67
2021/08/05 08:23:02;;;;;;;;;;;19.10;99.90;;;;;;6345020;28;19980;-67
2021/08/05 08:26:04;;;;;;;;;;;19.20;99.90;;;;;;6319565;28;20065;-67
2021/08/05 08:29:06;;;;;;;;;;;19.20;99.90;;;;;;6338978;28;20012;-68
2021/08/05 08:32:07;;;;;;;;;;;19.20;99.90;;;;;;6328834;28;19976;-67
2021/08/05 08:35:10;;;;;;;;;;;19.20;99.90;;;;;;6346404;28;20356;-67
2021/08/05 08:38:11;;;;;;;;;;;19.30;99.90;;;;;;6312582;28;19975;-67
2021/08/05 08:41:13;;;;;;;;;;;19.30;99.90;;;;;;6348154;28;19983;-67
2021/08/05 08:44:15;;;;;;;;;;;19.30;99.90;;;;;;6345677;28;19983;-67
2021/08/05 08:47:21;;;;;;;;;;;19.30;99.90;;;;;;6344584;28;19975;-67
2021/08/05 08:50:24;;;;;;;;;;;19.40;99.90;;;;;;6346324;28;20003;-67
2021/08/05 08:53:26;;;;;;;;;;;19.40;99.90;;;;;;6346506;28;20296;-67
2021/08/05 08:56:30;;;;;;;;;;;19.40;99.90;;;;;;6346318;28;19980;-67
2021/08/05 08:59:33;;;;;;;;;;;19.50;99.90;;;;;;6343629;28;20452;-67
2021/08/05 09:02:35;;;;;;;;;;;19.60;99.90;;;;;;6316628;28;19997;-67
2021/08/05 09:05:39;;;;;;;;;;;19.70;99.90;;;;;;6346381;28;19983;-67
2021/08/05 09:08:41;;;;;;;;;;;19.80;99.90;;;;;;6324111;28;19980;-67
2021/08/05 09:11:43;;;;;;;;;;;19.80;99.90;;;;;;6346820;28;20333;-67
2021/08/05 09:14:48;;;;;;;;;;;19.90;99.90;;;;;;6317323;28;20002;-67
2021/08/05 09:17:50;;;;;;;;;;;20.00;99.90;;;;;;6343865;28;20280;-67
2021/08/05 09:21:12;;;;;;;;;;;20.00;99.90;;;;;;6336741;28;20045;-67
2021/08/05 09:24:14;;;;;;;;;;;20.00;99.90;;;;;;6326320;28;19987;-67
2021/08/05 09:27:29;;;;;;;;;;;20.00;99.90;;;;;;6338604;28;19983;-67
2021/08/05 09:30:32;;;;;;;;;;;20.00;99.90;;;;;;6342900;28;19987;-67
2021/08/05 09:33:34;;;;;;;;;;;20.00;99.90;;;;;;6343799;28;19983;-67
2021/08/05 09:36:36;;;;;;;;;;;20.10;99.90;;;;;;6344910;28;20415;-67
2021/08/05 09:39:39;;;;;;;;;;;20.10;99.90;;;;;;6344627;28;19976;-67
2021/08/05 09:42:53;;;;;;;;;;;20.10;99.90;;;;;;6316566;28;19976;-67
2021/08/05 09:45:56;;;;;;;;;;;20.20;99.90;;;;;;6338994;28;19980;-67
2021/08/05 09:48:57;;;;;;;;;;;20.30;99.90;;;;;;6308802;28;20035;-67
2021/08/05 09:51:59;;;;;;;;;;;20.30;99.90;;;;;;6346531;28;19976;-67
2021/08/05 09:55:03;;;;;;;;;;;20.40;99.90;;;;;;6337105;28;19995;-67
2021/08/05 09:58:06;;;;;;;;;;;20.60;99.90;;;;;;6339786;28;19983;-67
2021/08/05 10:01:27;;;;;;;;;;;20.60;99.90;;;;;;6346473;28;20128;-67
2021/08/05 10:04:33;;;;;;;;;;;20.80;99.90;;;;;;6342782;28;19975;-67
2021/08/05 10:07:43;;;;;;;;;;;20.80;99.90;;;;;;6313623;28;20025;-67
2021/08/05 10:10:50;;;;;;;;;;;20.90;99.90;;;;;;6325699;28;20061;-67
2021/08/05 10:13:51;;;;;;;;;;;21.00;99.90;;;;;;6314543;28;20342;-67
2021/08/05 10:16:55;;;;;;;;;;;21.10;99.90;;;;;;6344276;28;19976;-67
2021/08/05 10:19:58;;;;;;;;;;;21.10;99.90;;;;;;6332434;28;20466;-67
2021/08/05 10:23:00;;;;;;;;;;;21.10;99.90;;;;;;6343997;28;19987;-67
2021/08/05 10:26:02;;;;;;;;;;;21.20;99.90;;;;;;6344005;28;19999;-67
2021/08/05 10:29:04;;;;;;;;;;;21.30;99.90;;;;;;6343558;28;19979;-66
2021/08/05 10:32:07;;;;;;;;;;;21.30;99.90;;;;;;6326428;28;19976;-66
2021/08/05 10:35:10;;;;;;;;;;;21.30;99.90;;;;;;6311728;28;19992;-67
2021/08/05 10:38:11;;;;;;;;;;;21.20;99.90;;;;;;6342225;28;20337;-67
2021/08/05 10:41:13;;;;;;;;;;;21.10;99.90;;;;;;6344415;28;19983;-67
2021/08/05 10:44:15;;;;;;;;;;;21.00;99.90;;;;;;6324672;28;19980;-67
2021/08/05 10:47:19;;;;;;;;;;;20.90;99.90;;;;;;6342787;28;20036;-67
2021/08/05 10:50:52;;;;;;;;;;;20.80;99.90;;;;;;6306768;28;19975;-67
2021/08/05 10:53:54;;;;;;;;;;;20.80;99.90;;;;;;6322285;28;20411;-67
2021/08/05 10:57:15;;;;;;;;;;;20.70;99.90;;;;;;6338520;28;20420;-67
2021/08/05 11:00:17;;;;;;;;;;;20.70;99.90;;;;;;6339645;28;20355;-67
2021/08/05 11:03:31;;;;;;;;;;;20.70;99.90;;;;;;6336195;28;20002;-67
2021/08/05 11:06:33;;;;;;;;;;;20.70;99.90;;;;;;6336822;28;20394;-67
2021/08/05 11:09:34;;;;;;;;;;;20.70;99.90;;;;;;6336541;28;20509;-67
2021/08/05 11:12:55;;;;;;;;;;;20.70;99.90;;;;;;6343437;28;20025;-67
2021/08/05 11:15:56;;;;;;;;;;;20.70;99.90;;;;;;6313358;28;20336;-67
2021/08/05 11:19:17;;;;;;;;;;;20.80;99.90;;;;;;6333453;28;19996;-67
2021/08/05 11:22:34;;;;;;;;;;;20.70;99.90;;;;;;6320105;28;20284;-67
2021/08/05 11:25:54;;;;;;;;;;;20.80;99.90;;;;;;6309380;28;19980;-67
2021/08/05 11:28:56;;;;;;;;;;;20.80;99.90;;;;;;6341741;28;20362;-67
2021/08/05 11:32:18;;;;;;;;;;;20.80;99.90;;;;;;6344547;28;19972;-67
2021/08/05 11:35:21;;;;;;;;;;;20.80;99.90;;;;;;6340617;28;19962;-67
2021/08/05 11:38:22;;;;;;;;;;;20.70;99.90;;;;;;6314845;28;19992;-67
2021/08/05 11:41:36;;;;;;;;;;;20.70;99.90;;;;;;6344282;28;19976;-67
2021/08/05 11:44:39;;;;;;;;;;;20.80;99.90;;;;;;6307935;28;19987;-67
2021/08/05 11:47:41;;;;;;;;;;;20.70;99.90;;;;;;6338591;28;19983;-67
2021/08/05 11:50:43;;;;;;;;;;;20.70;99.90;;;;;;6338658;28;19983;-67
2021/08/05 11:53:45;;;;;;;;;;;20.70;99.90;;;;;;6343105;28;20074;-67
2021/08/05 11:56:58;;;;;;;;;;;20.80;99.90;;;;;;6342017;28;19994;-67
2021/08/05 12:00:00;;;;;;;;;;;20.80;99.90;;;;;;6339884;28;19980;-67
2021/08/05 12:03:03;;;;;;;;;;;20.80;99.90;;;;;;6335910;28;20329;-67
2021/08/05 12:06:06;;;;;;;;;;;20.90;99.90;;;;;;6324732;28;19982;-67
2021/08/05 12:09:16;;;;;;;;;;;20.90;99.90;;;;;;6340297;28;19975;-67
2021/08/05 12:12:18;;;;;;;;;;;21.00;99.90;;;;;;6342696;28;19980;-67
2021/08/05 12:15:24;;;;;;;;;;;21.00;99.90;;;;;;6341779;28;20036;-67
2021/08/05 12:18:26;;;;;;;;;;;21.10;99.90;;;;;;6336469;28;19976;-67
2021/08/05 12:21:32;;;;;;;;;;;21.10;99.90;;;;;;6320889;28;20095;-67
2021/08/05 12:24:41;;;;;;;;;;;21.20;99.90;;;;;;6345193;28;19975;-67
2021/08/05 12:27:51;;;;;;;;;;;21.20;99.90;;;;;;6346070;28;20029;-67
2021/08/05 12:30:54;;;;;;;;;;;21.40;99.90;;;;;;6330262;28;20440;-67
2021/08/05 12:33:55;;;;;;;;;;;21.50;99.90;;;;;;6322067;28;19993;-67
2021/08/05 12:37:10;;;;;;;;;;;21.60;99.90;;;;;;6347309;28;19987;-67
2021/08/05 12:40:12;;;;;;;;;;;21.70;99.90;;;;;;6345729;28;20443;-67
2021/08/05 12:43:14;;;;;;;;;;;21.80;99.90;;;;;;6318546;28;20369;-67
2021/08/05 12:46:16;;;;;;;;;;;21.90;99.90;;;;;;6346492;28;20027;-67
2021/08/05 12:49:18;;;;;;;;;;;21.90;99.90;;;;;;6320584;28;20415;-67
2021/08/05 12:52:20;;;;;;;;;;;22.00;99.90;;;;;;6308617;28;19980;-67
2021/08/05 12:55:22;;;;;;;;;;;22.00;99.90;;;;;;6314417;28;19987;-67
2021/08/05 12:58:24;;;;;;;;;;;22.10;99.90;;;;;;6322179;28;20377;-67
2021/08/05 13:01:26;;;;;;;;;;;22.10;99.90;;;;;;6347565;28;20233;-67
2021/08/05 13:04:29;;;;;;;;;;;22.20;99.90;;;;;;6343794;28;19976;-67
2021/08/05 13:07:38;;;;;;;;;;;22.20;99.90;;;;;;6343077;28;19976;-67
2021/08/05 13:10:43;;;;;;;;;;;22.30;99.90;;;;;;6328868;28;19976;-67
2021/08/05 13:13:54;;;;;;;;;;;22.40;99.90;;;;;;6345925;28;19972;-67
2021/08/05 13:17:15;;;;;;;;;;;22.40;99.90;;;;;;6346383;28;19996;-67
2021/08/05 13:20:19;;;;;;;;;;;22.50;99.90;;;;;;6305465;28;19971;-67
2021/08/05 13:23:27;;;;;;;;;;;22.50;99.90;;;;;;6320711;28;19976;-67
2021/08/05 13:26:33;;;;;;;;;;;22.50;99.90;;;;;;6315692;28;20415;-67
2021/08/05 13:29:35;;;;;;;;;;;22.60;99.90;;;;;;6319089;28;19979;-67
2021/08/05 13:32:41;;;;;;;;;;;22.60;99.90;;;;;;6305842;28;19976;-67
2021/08/05 13:35:44;;;;;;;;;;;22.70;99.90;;;;;;6319858;28;20355;-67
2021/08/05 13:38:46;;;;;;;;;;;22.70;99.90;;;;;;6319523;28;19983;-67
2021/08/05 13:41:48;;;;;;;;;;;22.70;99.90;;;;;;6321692;28;19980;-67
2021/08/05 13:44:50;;;;;;;;;;;22.70;99.90;;;;;;6318538;28;19973;-67
2021/08/05 13:47:51;;;;;;;;;;;22.70;99.90;;;;;;6307650;28;20335;-67
2021/08/05 13:50:53;;;;;;;;;;;22.70;99.90;;;;;;6320893;28;20400;-67
2021/08/05 13:53:55;;;;;;;;;;;22.70;99.90;;;;;;6318698;28;19988;-67
2021/08/05 13:56:58;;;;;;;;;;;22.60;99.90;;;;;;6320250;28;19992;-67
2021/08/05 14:00:00;;;;;;;;;;;22.70;99.90;;;;;;6318913;28;20320;-67
2021/08/05 14:03:02;;;;;;;;;;;22.60;99.90;;;;;;6318773;28;19987;-67
2021/08/05 14:06:04;;;;;;;;;;;22.60;99.90;;;;;;6313161;28;19976;-67
2021/08/05 14:09:06;;;;;;;;;;;22.50;99.90;;;;;;6312483;28;19979;-67
2021/08/05 14:12:08;;;;;;;;;;;22.60;99.90;;;;;;6313005;28;19976;-66
2021/08/05 14:15:10;;;;;;;;;;;22.60;99.90;;;;;;6310194;28;19991;-67
2021/08/05 14:18:12;;;;;;;;;;;22.60;99.90;;;;;;6315694;28;20118;-66
2021/08/05 14:21:14;;;;;;;;;;;22.60;99.90;;;;;;6329066;28;20371;-67
2021/08/05 14:24:20;;;;;;;;;;;22.50;99.90;;;;;;6328280;28;21284;-67
2021/08/05 14:27:21;;;;;;;;;;;22.50;99.90;;;;;;6343700;28;20525;-67
2021/08/05 14:30:23;;;;;;;;;;;22.50;99.90;;;;;;6345596;28;19982;-67
2021/08/05 14:33:24;;;;;;;;;;;22.50;99.90;;;;;;6344144;28;19987;-67
2021/08/05 14:36:26;;;;;;;;;;;22.50;99.90;;;;;;6343605;28;20435;-67
2021/08/05 14:39:28;;;;;;;;;;;22.50;99.90;;;;;;6317686;28;19983;-67
2021/08/05 14:42:30;;;;;;;;;;;22.60;99.90;;;;;;6343178;28;20378;-67
2021/08/05 14:45:31;;;;;;;;;;;22.70;99.90;;;;;;6343193;28;20341;-67
2021/08/05 14:48:33;;;;;;;;;;;22.70;99.90;;;;;;6342986;28;19975;-67
2021/08/05 14:51:35;;;;;;;;;;;22.70;99.90;;;;;;6344770;28;19941;-66
2021/08/05 14:54:36;;;;;;;;;;;22.70;99.90;;;;;;6323653;28;20316;-67
2021/08/05 14:57:38;;;;;;;;;;;22.70;99.90;;;;;;6343390;28;19972;-67
2021/08/05 15:00:40;;;;;;;;;;;22.70;99.90;;;;;;6344812;28;20418;-67
2021/08/05 15:03:42;;;;;;;;;;;22.60;99.90;;;;;;6341887;28;20525;-67
2021/08/05 15:06:44;;;;;;;;;;;22.60;99.90;;;;;;6344336;28;19980;-67
2021/08/05 15:09:46;;;;;;;;;;;22.50;99.90;;;;;;6313029;28;20474;-67
2021/08/05 15:12:47;;;;;;;;;;;22.50;99.90;;;;;;6340220;28;19980;-67
2021/08/05 15:15:50;;;;;;;;;;;22.40;99.90;;;;;;6343095;28;20099;-67
2021/08/05 15:18:51;;;;;;;;;;;22.40;99.90;;;;;;6308111;28;19972;-68
2021/08/05 15:21:53;;;;;;;;;;;22.40;99.90;;;;;;6310553;28;19976;-67
2021/08/05 15:24:54;;;;;;;;;;;22.40;99.90;;;;;;6312699;28;19980;-67
2021/08/05 15:27:56;;;;;;;;;;;22.30;99.90;;;;;;6314640;28;19972;-67
2021/08/05 15:30:58;;;;;;;;;;;22.30;99.90;;;;;;6315019;28;20002;-67
2021/08/05 15:34:00;;;;;;;;;;;22.40;99.90;;;;;;6313524;28;19983;-68
2021/08/05 15:37:02;;;;;;;;;;;22.40;99.90;;;;;;6314916;28;19999;-68
2021/08/05 15:40:05;;;;;;;;;;;22.40;99.90;;;;;;6315053;28;19986;-67
2021/08/05 15:43:09;;;;;;;;;;;22.40;99.90;;;;;;6297325;28;19991;-68
2021/08/05 15:46:11;;;;;;;;;;;22.50;99.90;;;;;;6313512;28;19976;-67
2021/08/05 15:49:12;;;;;;;;;;;22.50;99.90;;;;;;6313307;28;19972;-68
2021/08/05 15:52:14;;;;;;;;;;;22.50;99.90;;;;;;6314816;28;20567;-67
2021/08/05 15:55:16;;;;;;;;;;;22.60;99.90;;;;;;6315893;28;20057;-67
2021/08/05 15:58:17;;;;;;;;;;;22.70;99.90;;;;;;6301335;28;20031;-67
2021/08/05 16:01:19;;;;;;;;;;;22.70;99.90;;;;;;6303476;28;19972;-68
2021/08/05 16:04:21;;;;;;;;;;;22.70;99.90;;;;;;6318631;28;19976;-67
2021/08/05 16:07:22;;;;;;;;;;;22.80;99.90;;;;;;6317906;28;19976;-67
2021/08/05 16:10:24;;;;;;;;;;;22.80;99.90;;;;;;6319269;28;19979;-67
2021/08/05 16:13:26;;;;;;;;;;;22.90;99.90;;;;;;6318533;28;19972;-68
2021/08/05 16:16:28;;;;;;;;;;;22.90;99.90;;;;;;6298224;28;20464;-67
2021/08/05 16:19:30;;;;;;;;;;;22.90;99.90;;;;;;6319770;28;19992;-68
2021/08/05 16:22:31;;;;;;;;;;;22.80;99.90;;;;;;6317619;28;20384;-68
2021/08/05 16:25:33;;;;;;;;;;;22.90;99.90;;;;;;6316169;28;19980;-67
2021/08/05 16:28:50;;;;;;;;;;;22.90;99.90;;;;;;6320702;28;19985;-68
2021/08/05 16:31:52;;;;;;;;;;;23.00;99.90;;;;;;6300464;28;19983;-67
2021/08/05 16:34:54;;;;;;;;;;;23.20;99.90;;;;;;6317154;28;19972;-68
2021/08/05 16:37:58;;;;;;;;;;;23.30;99.90;;;;;;6318601;28;19992;-67
2021/08/05 16:40:59;;;;;;;;;;;23.60;99.90;;;;;;6317011;28;19998;-67
2021/08/05 16:44:01;;;;;;;;;;;23.80;99.90;;;;;;6316101;28;19972;-68
2021/08/05 16:47:03;;;;;;;;;;;24.00;99.90;;;;;;6319405;28;20411;-68
2021/08/05 16:50:05;;;;;;;;;;;24.10;99.90;;;;;;6317962;28;19998;-67
2021/08/05 16:53:07;;;;;;;;;;;24.20;99.90;;;;;;6300734;28;20026;-67
2021/08/05 16:56:10;;;;;;;;;;;24.20;99.90;;;;;;6317206;28;20457;-67
2021/08/05 16:59:11;;;;;;;;;;;24.30;99.90;;;;;;6318731;28;19976;-67
2021/08/05 17:02:13;;;;;;;;;;;24.30;99.90;;;;;;6300208;28;19975;-68
2021/08/05 17:05:15;;;;;;;;;;;24.30;99.90;;;;;;6316645;28;19949;-68
2021/08/05 17:08:17;;;;;;;;;;;24.30;99.90;;;;;;6316937;28;20504;-68
2021/08/05 17:11:19;;;;;;;;;;;24.20;99.90;;;;;;6317558;28;20439;-67
2021/08/05 17:14:22;;;;;;;;;;;24.20;99.90;;;;;;6315866;28;19983;-68
2021/08/05 17:17:28;;;;;;;;;;;24.20;99.90;;;;;;6316566;28;20353;-67
2021/08/05 17:20:30;;;;;;;;;;;24.20;99.90;;;;;;6318557;28;19996;-68
2021/08/05 17:23:31;;;;;;;;;;;24.20;99.90;;;;;;6316347;28;19987;-68
2021/08/05 17:26:33;;;;;;;;;;;24.10;99.90;;;;;;6316498;28;20504;-68
2021/08/05 17:29:35;;;;;;;;;;;24.10;99.90;;;;;;6318540;28;20462;-68
2021/08/05 17:32:37;;;;;;;;;;;24.10;99.90;;;;;;6316909;28;20436;-68
2021/08/05 17:35:38;;;;;;;;;;;24.00;99.90;;;;;;6299675;28;20035;-68
2021/08/05 17:38:40;;;;;;;;;;;24.00;99.90;;;;;;6316603;28;20432;-67
2021/08/05 17:41:42;;;;;;;;;;;23.90;99.90;;;;;;6317363;28;19972;-67
2021/08/05 17:44:43;;;;;;;;;;;23.80;99.90;;;;;;6298240;28;19972;-67